createdAt,value
2023-01-27T00:00:53.764Z,22.33
2023-01-27T00:01:55.559Z,22.55
2023-01-27T00:02:57.405Z,22.46
2023-01-27T00:03:59.330Z,22.54
2023-01-27T00:05:01.254Z,22.18
2023-01-27T00:06:06.640Z,22.34
2023-01-27T00:07:08.557Z,22.79
2023-01-27T00:08:10.480Z,22.16
2023-01-27T00:09:12.321Z,22.62
2023-01-27T00:10:17.001Z,22.61
2023-01-27T00:11:37.564Z,22.79
2023-01-27T00:12:57.811Z,22.26
2023-01-27T00:13:59.726Z,22.23
2023-01-27T00:15:01.581Z,22.36
2023-01-27T00:16:03.653Z,22.53
2023-01-27T00:17:05.422Z,22.46
2023-01-27T00:18:08.191Z,22.57
2023-01-27T00:19:10.047Z,22.68
2023-01-27T00:20:12.549Z,22.40
2023-01-27T00:21:33.047Z,22.50
2023-01-27T00:22:53.339Z,22.54
2023-01-27T00:24:13.690Z,22.58
2023-01-27T00:25:15.527Z,22.50
2023-01-27T00:26:19.501Z,22.52
2023-01-27T00:27:21.369Z,22.26
2023-01-27T00:28:23.225Z,22.61
2023-01-27T00:29:26.851Z,22.40
2023-01-27T00:30:28.668Z,22.21
2023-01-27T00:31:48.928Z,22.42
2023-01-27T00:33:09.707Z,22.48
2023-01-27T00:34:11.705Z,22.25
2023-01-27T00:35:16.482Z,22.18
2023-01-27T00:36:18.383Z,22.38
2023-01-27T00:37:20.891Z,22.32
2023-01-27T00:38:22.730Z,22.28
2023-01-27T00:39:24.722Z,23.09
2023-01-27T00:40:26.516Z,22.55
2023-01-27T00:41:28.980Z,22.75
2023-01-27T00:42:30.876Z,22.59
2023-01-27T00:43:33.070Z,22.54
2023-01-27T00:44:34.940Z,22.16
2023-01-27T00:45:48.949Z,22.58
2023-01-27T00:46:50.920Z,22.43
2023-01-27T00:47:53.246Z,22.42
2023-01-27T00:48:55.120Z,22.31
2023-01-27T00:49:57.086Z,22.38
2023-01-27T00:50:59.368Z,22.40
2023-01-27T00:52:01.250Z,22.45
2023-01-27T00:53:03.111Z,22.48
2023-01-27T00:54:05.271Z,22.55
2023-01-27T00:55:08.098Z,22.59
2023-01-27T00:56:10.606Z,21.96
2023-01-27T00:57:12.673Z,22.49
2023-01-27T00:58:14.715Z,22.59
2023-01-27T00:59:16.563Z,22.58
2023-01-27T01:00:20.409Z,22.76
2023-01-27T01:01:22.311Z,22.64
2023-01-27T01:02:24.162Z,22.41
2023-01-27T01:03:31.177Z,22.52
2023-01-27T01:04:33.119Z,22.23
2023-01-27T01:05:35.111Z,22.44
2023-01-27T01:06:37.339Z,22.28
2023-01-27T01:07:39.147Z,22.52
2023-01-27T01:08:43.557Z,21.99
2023-01-27T01:09:45.436Z,22.56
2023-01-27T01:10:47.264Z,22.31
2023-01-27T01:11:49.086Z,22.56
2023-01-27T01:12:50.888Z,22.38
2023-01-27T01:13:56.065Z,22.58
2023-01-27T01:14:58.289Z,21.96
2023-01-27T01:16:15.643Z,22.37
2023-01-27T01:17:17.511Z,22.66
2023-01-27T01:18:19.619Z,22.44
2023-01-27T01:19:21.436Z,22.39
2023-01-27T01:20:24.497Z,22.49
2023-01-27T01:21:26.431Z,22.77
2023-01-27T01:22:28.300Z,22.18
2023-01-27T01:23:30.178Z,22.22
2023-01-27T01:24:32.087Z,22.33
2023-01-27T01:25:34.814Z,22.11
2023-01-27T01:26:37.370Z,22.59
2023-01-27T01:27:40.775Z,22.25
2023-01-27T01:28:46.924Z,22.50
2023-01-27T01:29:48.804Z,22.36
2023-01-27T01:30:50.757Z,22.36
2023-01-27T01:31:52.668Z,22.22
2023-01-27T01:32:55.069Z,22.15
2023-01-27T01:33:56.935Z,22.14
2023-01-27T01:34:58.783Z,22.26
2023-01-27T01:36:05.808Z,22.19
2023-01-27T01:37:07.642Z,22.51
2023-01-27T01:38:10.136Z,22.40
2023-01-27T01:39:11.933Z,22.38
2023-01-27T01:40:14.833Z,22.44
2023-01-27T01:41:20.570Z,22.21
2023-01-27T01:42:22.527Z,22.17
2023-01-27T01:43:26.447Z,22.81
2023-01-27T01:44:30.951Z,22.50
2023-01-27T01:45:36.465Z,22.31
2023-01-27T01:46:38.479Z,22.10
2023-01-27T01:47:40.435Z,22.67
2023-01-27T01:48:53.654Z,22.29
2023-01-27T01:49:55.590Z,22.07
2023-01-27T01:51:01.863Z,22.10
2023-01-27T01:52:10.038Z,22.19
2023-01-27T01:53:12.245Z,22.40
2023-01-27T01:54:21.636Z,22.52
2023-01-27T01:55:24.422Z,22.40
2023-01-27T01:56:32.448Z,22.27
2023-01-27T01:57:37.697Z,22.37
2023-01-27T01:59:53.394Z,22.45
2023-01-27T02:00:56.315Z,22.35
2023-01-27T02:02:03.546Z,22.25
2023-01-27T02:03:07.176Z,22.55
2023-01-27T02:04:15.564Z,22.36
2023-01-27T02:05:22.303Z,22.46
2023-01-27T02:06:24.222Z,22.40
2023-01-27T02:07:34.480Z,22.29
2023-01-27T02:08:40.292Z,22.38
2023-01-27T02:09:42.810Z,22.26
2023-01-27T02:10:44.971Z,22.25
2023-01-27T02:11:46.819Z,22.48
2023-01-27T02:12:48.872Z,22.13
2023-01-27T02:13:50.845Z,22.30
2023-01-27T02:14:52.978Z,22.26
2023-01-27T02:15:56.518Z,22.49
2023-01-27T02:16:58.658Z,22.05
2023-01-27T02:18:02.585Z,22.37
2023-01-27T02:19:05.935Z,22.21
2023-01-27T02:20:31.276Z,22.26
2023-01-27T02:21:33.278Z,22.14
2023-01-27T02:23:10.554Z,22.25
2023-01-27T02:24:13.670Z,22.20
2023-01-27T02:25:29.479Z,22.18
2023-01-27T02:26:36.155Z,22.32
2023-01-27T02:27:38.196Z,22.20
2023-01-27T02:28:40.037Z,22.37
2023-01-27T02:29:41.912Z,22.37
2023-01-27T02:30:44.036Z,22.27
2023-01-27T02:31:46.040Z,22.12
2023-01-27T02:32:47.975Z,22.32
2023-01-27T02:33:54.035Z,22.39
2023-01-27T02:34:57.000Z,22.20
2023-01-27T02:36:04.196Z,22.50
2023-01-27T02:37:10.456Z,22.36
2023-01-27T02:38:14.529Z,22.24
2023-01-27T02:39:20.721Z,22.36
2023-01-27T02:40:24.043Z,22.72
2023-01-27T02:41:27.971Z,22.30
2023-01-27T02:42:30.286Z,22.28
2023-01-27T02:43:32.127Z,22.31
2023-01-27T02:44:34.063Z,22.21
2023-01-27T02:45:37.646Z,22.42
2023-01-27T02:46:39.628Z,22.44
2023-01-27T02:47:42.068Z,22.19
2023-01-27T02:48:44.907Z,22.35
2023-01-27T02:49:47.187Z,22.41
2023-01-27T02:50:49.159Z,22.62
2023-01-27T02:51:51.088Z,22.56
2023-01-27T02:52:53.364Z,22.31
2023-01-27T02:53:56.803Z,22.19
2023-01-27T02:54:58.683Z,22.23
2023-01-27T02:56:00.483Z,22.28
2023-01-27T02:57:02.386Z,22.21
2023-01-27T02:58:07.831Z,22.29
2023-01-27T02:59:16.991Z,22.10
2023-01-27T03:00:18.957Z,22.20
2023-01-27T03:01:20.755Z,22.11
2023-01-27T03:02:30.641Z,22.09
2023-01-27T03:03:32.537Z,22.46
2023-01-27T03:04:38.920Z,22.13
2023-01-27T03:05:41.104Z,22.01
2023-01-27T03:06:43.224Z,22.31
2023-01-27T03:07:45.271Z,22.07
2023-01-27T03:08:48.400Z,22.16
2023-01-27T03:09:50.894Z,22.15
2023-01-27T03:10:54.509Z,22.30
2023-01-27T03:12:15.906Z,22.11
2023-01-27T03:13:22.251Z,22.11
2023-01-27T03:14:45.153Z,22.14
2023-01-27T03:16:06.876Z,22.03
2023-01-27T03:17:27.243Z,22.14
2023-01-27T03:18:29.384Z,21.92
2023-01-27T03:19:31.425Z,22.10
2023-01-27T03:20:33.332Z,22.07
2023-01-27T03:21:35.126Z,22.18
2023-01-27T03:22:37.086Z,22.05
2023-01-27T03:23:39.767Z,22.05
2023-01-27T03:24:41.787Z,22.19
2023-01-27T03:25:48.303Z,22.35
2023-01-27T03:26:50.406Z,22.23
2023-01-27T03:27:55.832Z,22.09
2023-01-27T03:29:20.235Z,21.92
2023-01-27T03:30:22.402Z,21.99
2023-01-27T03:31:50.262Z,22.25
2023-01-27T03:32:52.587Z,22.47
2023-01-27T03:34:14.484Z,22.07
2023-01-27T03:35:23.094Z,22.05
2023-01-27T03:36:43.619Z,22.10
2023-01-27T03:38:04.512Z,21.89
2023-01-27T03:39:24.888Z,21.90
2023-01-27T03:40:46.071Z,22.08
2023-01-27T03:42:06.556Z,22.08
2023-01-27T03:43:30.252Z,21.69
2023-01-27T03:44:51.186Z,21.95
2023-01-27T03:46:11.489Z,21.92
2023-01-27T03:47:13.427Z,22.02
2023-01-27T03:48:17.398Z,22.08
2023-01-27T03:49:19.499Z,22.31
2023-01-27T03:50:31.207Z,22.33
2023-01-27T03:51:33.231Z,22.27
2023-01-27T03:52:34.988Z,22.01
2023-01-27T03:53:37.415Z,22.36
2023-01-27T03:54:39.265Z,22.35
2023-01-27T03:55:41.448Z,21.98
2023-01-27T03:56:43.342Z,22.16
2023-01-27T03:57:45.913Z,22.16
2023-01-27T03:58:49.938Z,22.11
2023-01-27T03:59:52.383Z,22.01
2023-01-27T04:01:14.443Z,22.20
2023-01-27T04:02:34.871Z,21.95
2023-01-27T04:03:55.464Z,21.81
2023-01-27T04:05:16.091Z,21.98
2023-01-27T04:06:39.021Z,21.74
2023-01-27T04:07:40.887Z,21.78
2023-01-27T04:08:43.629Z,21.82
2023-01-27T04:09:45.407Z,22.02
2023-01-27T04:11:07.107Z,22.03
2023-01-27T04:12:10.221Z,21.79
2023-01-27T04:13:11.982Z,21.98
2023-01-27T04:14:14.030Z,21.78
2023-01-27T04:15:17.477Z,22.27
2023-01-27T04:16:29.022Z,22.09
2023-01-27T04:17:38.830Z,22.29
2023-01-27T04:18:40.853Z,21.87
2023-01-27T04:19:43.039Z,22.00
2023-01-27T04:20:44.833Z,22.16
2023-01-27T04:21:47.423Z,22.17
2023-01-27T04:22:49.203Z,21.91
2023-01-27T04:23:52.280Z,22.27
2023-01-27T04:24:54.213Z,22.14
2023-01-27T04:25:56.702Z,22.06
2023-01-27T04:27:27.799Z,21.95
2023-01-27T04:28:43.784Z,21.94
2023-01-27T04:29:46.379Z,21.96
2023-01-27T04:30:48.920Z,22.01
2023-01-27T04:31:51.571Z,22.13
2023-01-27T04:32:53.423Z,21.95
2023-01-27T04:33:55.280Z,22.14
2023-01-27T04:34:57.095Z,22.05
2023-01-27T04:35:59.015Z,22.04
2023-01-27T04:37:00.818Z,22.25
2023-01-27T04:38:02.952Z,22.06
2023-01-27T04:39:04.826Z,22.09
2023-01-27T04:40:09.335Z,21.94
2023-01-27T04:41:11.344Z,21.99
2023-01-27T04:42:13.103Z,22.34
2023-01-27T04:43:15.292Z,22.08
2023-01-27T04:44:20.182Z,22.15
2023-01-27T04:45:21.964Z,21.87
2023-01-27T04:46:23.894Z,22.33
2023-01-27T04:47:25.713Z,22.01
2023-01-27T04:48:27.578Z,22.06
2023-01-27T04:49:29.388Z,22.18
2023-01-27T04:50:31.216Z,22.36
2023-01-27T04:51:33.930Z,21.99
2023-01-27T04:52:35.810Z,22.29
2023-01-27T04:53:37.704Z,21.95
2023-01-27T04:54:39.559Z,21.97
2023-01-27T04:55:46.163Z,22.00
2023-01-27T04:57:00.223Z,22.07
2023-01-27T04:58:02.011Z,21.88
2023-01-27T04:59:06.952Z,22.00
2023-01-27T05:00:10.623Z,22.23
2023-01-27T05:01:12.434Z,22.03
2023-01-27T05:02:14.307Z,22.09
2023-01-27T05:03:16.231Z,22.20
2023-01-27T05:04:18.150Z,22.17
2023-01-27T05:05:19.913Z,22.19
2023-01-27T05:06:22.458Z,21.87
2023-01-27T05:07:24.638Z,22.41
2023-01-27T05:08:26.668Z,21.99
2023-01-27T05:09:28.544Z,22.31
2023-01-27T05:10:30.309Z,22.14
2023-01-27T05:11:32.151Z,22.18
2023-01-27T05:12:34.004Z,22.34
2023-01-27T05:13:36.035Z,22.19
2023-01-27T05:14:37.888Z,21.86
2023-01-27T05:15:39.761Z,22.21
2023-01-27T05:16:41.689Z,22.17
2023-01-27T05:17:43.637Z,22.34
2023-01-27T05:18:47.919Z,21.93
2023-01-27T05:19:49.925Z,22.25
2023-01-27T05:20:52.351Z,22.14
2023-01-27T05:21:54.157Z,22.03
2023-01-27T05:23:16.084Z,22.09
2023-01-27T05:24:17.877Z,21.75
2023-01-27T05:25:19.755Z,21.90
2023-01-27T05:26:24.254Z,22.01
2023-01-27T05:27:26.064Z,21.91
2023-01-27T05:28:28.414Z,22.06
2023-01-27T05:29:31.543Z,21.94
2023-01-27T05:30:33.377Z,21.87
2023-01-27T05:31:35.621Z,21.96
2023-01-27T05:32:37.539Z,22.20
2023-01-27T05:33:40.222Z,22.14
2023-01-27T05:34:42.095Z,22.23
2023-01-27T05:35:43.931Z,21.99
2023-01-27T05:36:45.691Z,22.37
2023-01-27T05:37:47.504Z,22.17
2023-01-27T05:38:49.722Z,22.29
2023-01-27T05:39:51.542Z,22.42
2023-01-27T05:40:58.047Z,22.21
2023-01-27T05:41:59.853Z,22.08
2023-01-27T05:43:01.633Z,22.22
2023-01-27T05:44:04.396Z,22.32
2023-01-27T05:45:06.964Z,22.39
2023-01-27T05:46:11.817Z,22.39
2023-01-27T05:47:13.694Z,22.20
2023-01-27T05:48:15.575Z,22.26
2023-01-27T05:49:17.366Z,22.40
2023-01-27T05:50:19.279Z,22.13
2023-01-27T05:51:23.402Z,21.94
2023-01-27T05:52:25.169Z,22.44
2023-01-27T05:53:27.160Z,22.18
2023-01-27T05:54:29.002Z,22.03
2023-01-27T05:55:30.777Z,22.01
2023-01-27T05:56:34.141Z,22.30
2023-01-27T05:57:36.079Z,21.95
2023-01-27T05:58:39.007Z,22.24
2023-01-27T05:59:40.902Z,22.28
2023-01-27T06:00:42.905Z,22.10
2023-01-27T06:01:44.915Z,21.87
2023-01-27T06:02:47.604Z,22.03
2023-01-27T06:03:50.007Z,22.24
2023-01-27T06:04:51.851Z,22.18
2023-01-27T06:05:56.450Z,22.09
2023-01-27T06:06:58.210Z,22.28
2023-01-27T06:07:59.991Z,21.93
2023-01-27T06:09:01.872Z,22.15
2023-01-27T06:10:03.943Z,22.24
2023-01-27T06:11:06.753Z,21.90
2023-01-27T06:12:08.633Z,22.06
2023-01-27T06:13:10.576Z,22.25
2023-01-27T06:14:12.456Z,22.18
2023-01-27T06:15:14.618Z,22.16
2023-01-27T06:16:19.294Z,21.93
2023-01-27T06:17:21.172Z,21.87
2023-01-27T06:18:24.040Z,21.68
2023-01-27T06:19:25.843Z,22.12
2023-01-27T06:20:27.654Z,21.57
2023-01-27T06:21:29.422Z,21.62
2023-01-27T06:22:31.262Z,21.67
2023-01-27T06:23:33.281Z,21.58
2023-01-27T06:24:35.092Z,21.59
2023-01-27T06:25:42.957Z,22.01
2023-01-27T06:26:44.731Z,21.62
2023-01-27T06:27:46.635Z,21.46
2023-01-27T06:28:48.685Z,21.87
2023-01-27T06:29:50.522Z,21.57
2023-01-27T06:30:53.260Z,21.24
2023-01-27T06:31:55.150Z,21.62
2023-01-27T06:32:57.025Z,21.24
2023-01-27T06:33:58.865Z,21.50
2023-01-27T06:35:00.686Z,21.42
2023-01-27T06:36:05.657Z,21.13
2023-01-27T06:37:07.445Z,21.45
2023-01-27T06:38:12.883Z,21.37
2023-01-27T06:39:14.648Z,21.23
2023-01-27T06:40:16.750Z,20.95
2023-01-27T06:41:18.870Z,21.04
2023-01-27T06:42:20.677Z,21.24
2023-01-27T06:43:22.556Z,21.25
2023-01-27T06:44:24.454Z,21.00
2023-01-27T06:45:27.033Z,21.04
2023-01-27T06:46:28.936Z,21.12
2023-01-27T06:47:30.772Z,20.94
2023-01-27T06:48:33.024Z,20.90
2023-01-27T06:49:34.913Z,20.82
2023-01-27T06:50:37.584Z,20.89
2023-01-27T06:51:39.448Z,20.68
2023-01-27T06:52:41.245Z,20.73
2023-01-27T06:53:43.123Z,20.63
2023-01-27T06:54:45.021Z,20.47
2023-01-27T06:55:47.283Z,20.84
2023-01-27T06:56:49.228Z,20.83
2023-01-27T06:57:51.895Z,20.82
2023-01-27T06:58:53.683Z,20.78
2023-01-27T06:59:56.112Z,20.60
2023-01-27T07:00:58.140Z,20.58
2023-01-27T07:02:00.835Z,20.49
2023-01-27T07:03:03.296Z,20.61
2023-01-27T07:04:05.137Z,20.53
2023-01-27T07:05:07.223Z,20.41
2023-01-27T07:06:11.144Z,20.60
2023-01-27T07:07:13.082Z,20.43
2023-01-27T07:08:15.045Z,20.58
2023-01-27T07:09:16.980Z,20.44
2023-01-27T07:10:19.110Z,20.38
2023-01-27T07:11:20.971Z,20.34
2023-01-27T07:12:22.738Z,20.69
2023-01-27T07:13:24.594Z,20.63
2023-01-27T07:14:26.363Z,20.40
2023-01-27T07:15:28.562Z,20.44
2023-01-27T07:16:30.659Z,20.68
2023-01-27T07:17:32.647Z,20.34
2023-01-27T07:18:34.928Z,20.41
2023-01-27T07:19:36.731Z,20.59
2023-01-27T07:20:38.527Z,20.57
2023-01-27T07:21:40.519Z,20.53
2023-01-27T07:22:42.276Z,20.34
2023-01-27T07:23:44.160Z,20.38
2023-01-27T07:24:46.112Z,20.61
2023-01-27T07:25:47.904Z,20.38
2023-01-27T07:26:49.710Z,20.43
2023-01-27T07:27:51.858Z,20.66
2023-01-27T07:28:53.840Z,20.72
2023-01-27T07:29:55.788Z,20.73
2023-01-27T07:31:01.611Z,20.51
2023-01-27T07:32:03.655Z,20.67
2023-01-27T07:33:10.533Z,20.53
2023-01-27T07:34:12.456Z,20.35
2023-01-27T07:35:14.296Z,20.63
2023-01-27T07:36:16.094Z,20.46
2023-01-27T07:37:18.251Z,20.41
2023-01-27T07:38:20.090Z,20.64
2023-01-27T07:39:21.910Z,20.46
2023-01-27T07:40:23.705Z,20.56
2023-01-27T07:41:26.392Z,20.78
2023-01-27T07:42:28.170Z,20.67
2023-01-27T07:43:29.957Z,20.66
2023-01-27T07:44:31.881Z,20.73
2023-01-27T07:45:33.721Z,20.40
2023-01-27T07:46:35.826Z,20.58
2023-01-27T07:47:37.997Z,20.58
2023-01-27T07:48:39.795Z,20.30
2023-01-27T07:49:41.676Z,20.41
2023-01-27T07:50:43.540Z,20.39
2023-01-27T07:51:45.790Z,20.45
2023-01-27T07:52:47.636Z,20.47
2023-01-27T07:53:49.494Z,20.39
2023-01-27T07:54:51.435Z,20.71
2023-01-27T07:55:53.282Z,20.41
2023-01-27T07:56:55.076Z,20.35
2023-01-27T07:57:57.512Z,20.31
2023-01-27T07:58:59.267Z,20.52
2023-01-27T08:00:01.117Z,20.81
2023-01-27T08:01:06.065Z,20.80
2023-01-27T08:02:10.272Z,20.43
2023-01-27T08:03:31.603Z,20.79
2023-01-27T08:04:43.448Z,20.60
2023-01-27T08:05:52.939Z,20.55
2023-01-27T08:06:54.995Z,20.58
2023-01-27T08:07:58.793Z,20.49
2023-01-27T08:09:00.853Z,20.65
2023-01-27T08:10:02.665Z,20.20
2023-01-27T08:11:10.227Z,20.80
2023-01-27T08:12:12.033Z,20.44
2023-01-27T08:13:13.901Z,20.64
2023-01-27T08:14:15.725Z,20.31
2023-01-27T08:15:19.165Z,20.57
2023-01-27T08:16:21.284Z,20.67
2023-01-27T08:17:23.115Z,20.73
2023-01-27T08:18:26.034Z,20.56
2023-01-27T08:19:27.823Z,20.54
2023-01-27T08:20:29.766Z,20.39
2023-01-27T08:21:33.265Z,20.62
2023-01-27T08:22:35.150Z,20.44
2023-01-27T08:23:37.475Z,20.58
2023-01-27T08:24:39.229Z,20.52
2023-01-27T08:25:40.982Z,20.65
2023-01-27T08:26:42.850Z,20.75
2023-01-27T08:27:44.617Z,20.49
2023-01-27T08:28:46.544Z,20.68
2023-01-27T08:29:48.316Z,20.70
2023-01-27T08:30:53.812Z,20.61
2023-01-27T08:31:55.648Z,20.61
2023-01-27T08:32:57.517Z,20.59
2023-01-27T08:33:59.496Z,20.54
2023-01-27T08:35:01.278Z,20.67
2023-01-27T08:36:15.380Z,20.56
2023-01-27T08:37:17.231Z,20.56
2023-01-27T08:38:19.810Z,20.70
2023-01-27T08:39:21.903Z,20.56
2023-01-27T08:40:23.798Z,20.62
2023-01-27T08:41:27.057Z,20.76
2023-01-27T08:42:28.832Z,20.36
2023-01-27T08:43:30.907Z,20.63
2023-01-27T08:44:32.799Z,20.51
2023-01-27T08:45:35.960Z,20.78
2023-01-27T08:46:37.971Z,20.48
2023-01-27T08:47:39.758Z,20.78
2023-01-27T08:48:41.873Z,20.69
2023-01-27T08:49:43.676Z,20.82
2023-01-27T08:50:45.441Z,20.44
2023-01-27T08:51:47.291Z,20.79
2023-01-27T08:52:49.131Z,20.61
2023-01-27T08:53:51.003Z,20.46
2023-01-27T08:54:52.815Z,20.54
2023-01-27T08:55:58.006Z,20.52
2023-01-27T08:56:59.795Z,20.62
2023-01-27T08:58:01.698Z,20.88
2023-01-27T08:59:03.620Z,20.83
2023-01-27T09:00:07.644Z,20.70
2023-01-27T09:01:09.745Z,20.52
2023-01-27T09:02:13.592Z,20.68
2023-01-27T09:03:16.079Z,20.69
2023-01-27T09:04:17.994Z,20.77
2023-01-27T09:05:20.879Z,20.49
2023-01-27T09:06:22.751Z,20.72
2023-01-27T09:07:24.563Z,20.28
2023-01-27T09:08:27.486Z,20.61
2023-01-27T09:09:29.258Z,20.68
2023-01-27T09:10:31.669Z,20.70
2023-01-27T09:11:33.821Z,20.56
2023-01-27T09:12:35.620Z,20.50
2023-01-27T09:13:37.668Z,20.58
2023-01-27T09:14:40.296Z,20.46
2023-01-27T09:15:43.874Z,20.73
2023-01-27T09:16:45.751Z,20.47
2023-01-27T09:17:47.706Z,20.74
2023-01-27T09:18:49.459Z,20.74
2023-01-27T09:19:51.855Z,20.64
2023-01-27T09:20:53.718Z,20.72
2023-01-27T09:21:55.736Z,20.52
2023-01-27T09:22:58.173Z,20.67
2023-01-27T09:24:00.039Z,20.67
2023-01-27T09:25:01.851Z,20.40
2023-01-27T09:26:03.640Z,20.47
2023-01-27T09:27:05.592Z,20.73
2023-01-27T09:28:12.272Z,20.71
2023-01-27T09:29:14.123Z,20.51
2023-01-27T09:30:16.688Z,20.77
2023-01-27T09:31:18.817Z,20.60
2023-01-27T09:32:20.817Z,20.64
2023-01-27T09:33:22.742Z,20.60
2023-01-27T09:34:24.627Z,20.44
2023-01-27T09:35:32.050Z,20.37
2023-01-27T09:36:40.758Z,20.62
2023-01-27T09:38:04.018Z,20.38
2023-01-27T09:39:08.498Z,20.56
2023-01-27T09:40:41.863Z,20.48
2023-01-27T09:41:51.985Z,20.27
2023-01-27T09:43:23.494Z,20.53
2023-01-27T09:45:02.429Z,20.43
2023-01-27T09:46:06.848Z,20.25
2023-01-27T09:47:26.875Z,20.48
2023-01-27T09:48:38.960Z,20.40
2023-01-27T09:49:56.536Z,20.57
2023-01-27T09:51:05.872Z,20.70
2023-01-27T09:52:10.217Z,20.93
2023-01-27T09:53:25.998Z,20.52
2023-01-27T09:54:45.120Z,20.83
2023-01-27T09:55:49.496Z,20.69
2023-01-27T09:56:54.286Z,20.70
2023-01-27T09:58:05.060Z,20.66
2023-01-27T09:59:06.879Z,20.52
2023-01-27T10:00:37.930Z,20.70
2023-01-27T10:01:54.531Z,20.86
2023-01-27T10:03:14.914Z,20.76
2023-01-27T10:04:35.163Z,20.77
2023-01-27T10:05:56.700Z,20.68
2023-01-27T10:07:12.690Z,20.62
2023-01-27T10:08:34.656Z,20.73
2023-01-27T10:09:51.246Z,20.66
2023-01-27T10:11:14.910Z,20.62
2023-01-27T10:12:37.612Z,20.54
2023-01-27T10:13:59.716Z,20.40
2023-01-27T10:15:04.239Z,20.64
2023-01-27T10:16:11.222Z,20.68
2023-01-27T10:17:44.130Z,20.37
2023-01-27T10:19:15.415Z,20.37
2023-01-27T10:20:35.595Z,20.67
2023-01-27T10:22:00.662Z,20.36
2023-01-27T10:23:02.418Z,20.47
2023-01-27T10:24:12.775Z,20.45
2023-01-27T10:25:26.805Z,20.42
2023-01-27T10:26:39.660Z,20.84
2023-01-27T10:27:48.287Z,20.72
2023-01-27T10:29:03.318Z,20.44
2023-01-27T10:30:35.849Z,20.55
2023-01-27T10:31:53.233Z,20.48
2023-01-27T10:33:13.159Z,20.44
2023-01-27T10:34:28.112Z,20.56
2023-01-27T10:35:45.239Z,20.52
2023-01-27T10:37:06.750Z,20.64
2023-01-27T10:38:29.303Z,20.57
2023-01-27T10:39:50.172Z,20.92
2023-01-27T10:41:43.281Z,20.71
2023-01-27T10:43:02.235Z,20.52
2023-01-27T10:44:24.984Z,20.78
2023-01-27T10:45:42.719Z,20.46
2023-01-27T10:47:26.116Z,20.76
2023-01-27T10:48:36.687Z,20.59
2023-01-27T10:50:12.773Z,20.42
2023-01-27T10:51:42.131Z,20.78
2023-01-27T10:53:07.167Z,20.77
2023-01-27T10:54:24.820Z,20.49
2023-01-27T10:55:33.748Z,20.71
2023-01-27T10:56:39.619Z,20.47
2023-01-27T10:58:33.706Z,20.67
2023-01-27T11:00:05.302Z,20.48
2023-01-27T11:01:20.719Z,20.66
2023-01-27T11:02:36.812Z,20.81
2023-01-27T11:03:54.681Z,20.66
2023-01-27T11:05:07.629Z,20.73
2023-01-27T11:06:16.655Z,20.50
2023-01-27T11:07:21.572Z,20.58
2023-01-27T11:08:28.244Z,21.06
2023-01-27T11:09:48.507Z,20.91
2023-01-27T11:11:13.898Z,20.65
2023-01-27T11:12:16.635Z,20.57
2023-01-27T11:13:18.533Z,20.68
2023-01-27T11:14:27.880Z,20.69
2023-01-27T11:15:34.858Z,20.59
2023-01-27T11:16:40.281Z,20.97
2023-01-27T11:17:44.877Z,20.68
2023-01-27T11:18:55.703Z,20.97
2023-01-27T11:20:23.967Z,20.77
2023-01-27T11:21:31.352Z,21.10
2023-01-27T11:22:44.004Z,20.93
2023-01-27T11:23:51.944Z,20.82
2023-01-27T11:25:08.584Z,20.90
2023-01-27T11:26:16.283Z,20.96
2023-01-27T11:27:35.974Z,21.01
2023-01-27T11:28:56.916Z,20.97
2023-01-27T11:30:09.117Z,20.91
2023-01-27T11:31:42.127Z,21.13
2023-01-27T11:32:59.351Z,20.79
2023-01-27T11:34:03.950Z,21.00
2023-01-27T11:35:15.825Z,21.03
2023-01-27T11:36:18.048Z,20.99
2023-01-27T11:37:27.287Z,20.86
2023-01-27T11:38:29.122Z,20.83
2023-01-27T11:39:33.738Z,21.22
2023-01-27T11:40:38.534Z,20.93
2023-01-27T11:41:47.803Z,20.89
2023-01-27T11:42:51.919Z,20.85
2023-01-27T11:43:53.973Z,21.17
2023-01-27T11:44:58.182Z,20.98
2023-01-27T11:46:06.772Z,21.15
2023-01-27T11:47:16.055Z,20.91
2023-01-27T11:48:21.752Z,21.17
2023-01-27T11:49:48.395Z,20.92
2023-01-27T11:50:50.266Z,21.10
2023-01-27T11:51:52.119Z,20.87
2023-01-27T11:53:09.550Z,20.93
2023-01-27T11:54:29.082Z,21.38
2023-01-27T11:55:38.596Z,21.12
2023-01-27T11:56:43.968Z,21.00
2023-01-27T11:57:55.353Z,20.89
2023-01-27T11:59:06.737Z,21.01
2023-01-27T12:00:32.134Z,20.78
2023-01-27T12:01:48.367Z,20.65
2023-01-27T12:03:14.890Z,20.88
2023-01-27T12:04:40.381Z,20.71
2023-01-27T12:05:52.545Z,20.76
2023-01-27T12:07:12.822Z,20.69
2023-01-27T12:08:40.173Z,20.97
2023-01-27T12:09:42.355Z,20.75
2023-01-27T12:10:44.140Z,21.02
2023-01-27T12:11:45.932Z,20.76
2023-01-27T12:12:47.845Z,20.67
2023-01-27T12:13:52.419Z,20.82
2023-01-27T12:14:59.780Z,21.20
2023-01-27T12:16:05.020Z,20.84
2023-01-27T12:17:08.617Z,20.67
2023-01-27T12:18:15.478Z,20.92
2023-01-27T12:19:40.185Z,20.48
2023-01-27T12:20:49.314Z,20.53
2023-01-27T12:22:00.371Z,20.66
2023-01-27T12:23:16.497Z,20.63
2023-01-27T12:24:28.217Z,20.72
2023-01-27T12:25:40.325Z,20.66
2023-01-27T12:26:44.689Z,20.77
2023-01-27T12:27:53.704Z,20.74
2023-01-27T12:28:55.625Z,20.61
2023-01-27T12:30:04.092Z,20.63
2023-01-27T12:31:30.987Z,20.76
2023-01-27T12:32:42.349Z,20.53
2023-01-27T12:33:48.723Z,20.67
2023-01-27T12:34:57.045Z,20.79
2023-01-27T12:36:01.371Z,20.67
2023-01-27T12:37:06.695Z,20.63
2023-01-27T12:38:20.234Z,20.85
2023-01-27T12:39:41.811Z,20.86
2023-01-27T12:40:46.502Z,20.83
2023-01-27T12:41:48.297Z,20.64
2023-01-27T12:43:03.829Z,20.88
2023-01-27T12:44:20.073Z,20.70
2023-01-27T12:45:23.713Z,20.83
2023-01-27T12:46:28.029Z,20.88
2023-01-27T12:47:31.508Z,20.57
2023-01-27T12:48:36.302Z,20.90
2023-01-27T12:49:40.458Z,20.83
2023-01-27T12:50:53.298Z,20.84
2023-01-27T12:51:55.696Z,20.94
2023-01-27T12:53:22.686Z,20.77
2023-01-27T12:54:27.951Z,20.76
2023-01-27T12:55:32.841Z,20.64
2023-01-27T12:56:35.224Z,20.79
2023-01-27T12:57:43.584Z,20.97
2023-01-27T12:58:47.164Z,21.06
2023-01-27T12:59:52.689Z,20.80
2023-01-27T13:00:55.573Z,20.93
2023-01-27T13:02:23.183Z,20.63
2023-01-27T13:03:26.452Z,20.69
2023-01-27T13:04:29.235Z,20.69
2023-01-27T13:05:37.208Z,21.03
2023-01-27T13:06:43.489Z,20.76
2023-01-27T13:07:53.340Z,20.98
2023-01-27T13:08:55.187Z,20.70
2023-01-27T13:10:06.546Z,20.70
2023-01-27T13:11:08.810Z,20.56
2023-01-27T13:12:24.843Z,20.73
2023-01-27T13:13:29.056Z,20.41
2023-01-27T13:14:35.681Z,20.86
2023-01-27T13:15:37.492Z,20.87
2023-01-27T13:16:39.547Z,20.85
2023-01-27T13:17:50.051Z,20.78
2023-01-27T13:18:57.978Z,20.86
2023-01-27T13:20:06.057Z,20.62
2023-01-27T13:21:13.952Z,20.60
2023-01-27T13:22:20.598Z,20.55
2023-01-27T13:23:26.387Z,20.89
2023-01-27T13:24:42.454Z,20.63
2023-01-27T13:25:54.633Z,20.61
2023-01-27T13:26:58.022Z,20.88
2023-01-27T13:28:01.260Z,20.62
2023-01-27T13:29:08.977Z,20.90
2023-01-27T13:30:21.690Z,20.66
2023-01-27T13:31:57.032Z,20.92
2023-01-27T13:33:22.261Z,20.41
2023-01-27T13:34:48.034Z,20.42
2023-01-27T13:35:59.968Z,20.59
2023-01-27T13:37:10.095Z,20.67
2023-01-27T13:38:43.707Z,20.46
2023-01-27T13:39:57.537Z,20.43
2023-01-27T13:41:03.588Z,20.96
2023-01-27T13:42:05.603Z,20.62
2023-01-27T13:43:29.402Z,20.61
2023-01-27T13:44:48.050Z,20.61
2023-01-27T13:46:04.733Z,20.61
2023-01-27T13:47:16.799Z,20.49
2023-01-27T13:48:27.867Z,20.76
2023-01-27T13:49:38.009Z,20.96
2023-01-27T13:50:44.926Z,20.88
2023-01-27T13:51:46.728Z,20.43
2023-01-27T13:52:53.057Z,20.54
2023-01-27T13:54:02.046Z,20.70
2023-01-27T13:55:04.226Z,20.63
2023-01-27T13:56:13.709Z,20.50
2023-01-27T13:57:41.752Z,20.44
2023-01-27T13:59:05.220Z,20.36
2023-01-27T14:00:20.649Z,20.42
2023-01-27T14:01:47.073Z,20.67
2023-01-27T14:03:03.876Z,20.72
2023-01-27T14:04:13.924Z,20.48
2023-01-27T14:05:33.669Z,20.54
2023-01-27T14:07:00.204Z,20.72
2023-01-27T14:08:20.859Z,20.49
2023-01-27T14:10:08.886Z,20.86
2023-01-27T14:11:16.979Z,20.46
2023-01-27T14:12:37.029Z,20.77
2023-01-27T14:13:55.151Z,20.62
2023-01-27T14:15:03.402Z,20.60
2023-01-27T14:16:40.462Z,20.86
2023-01-27T14:18:02.564Z,20.55
2023-01-27T14:19:19.728Z,20.84
2023-01-27T14:20:25.928Z,20.94
2023-01-27T14:21:44.141Z,20.53
2023-01-27T14:22:56.875Z,20.65
2023-01-27T14:24:29.817Z,20.90